sensor_id;sensor_type;location;lat;lon;timestamp;pressure;altitude;pressure_sealevel;temperature;humidity
84590;BME280;75075;48.816;8.740;2024-01-30T00:00:31;96705.47;;;21.17;33.64
84590;BME280;75075;48.816;8.740;2024-01-30T00:05:31;96704.78;;;21.15;33.42
84590;BME280;75075;48.816;8.740;2024-01-30T00:10:31;96708.66;;;21.12;33.95
84590;BME280;75075;48.816;8.740;2024-01-30T00:15:33;96709.66;;;21.11;33.89
84590;BME280;75075;48.816;8.740;2024-01-30T00:20:34;96709.66;;;21.11;33.71
84590;BME280;75075;48.816;8.740;2024-01-30T00:25:34;96711.69;;;21.09;33.56
84590;BME280;75075;48.816;8.740;2024-01-30T00:30:35;96715.38;;;21.08;33.55
84590;BME280;75075;48.816;8.740;2024-01-30T00:35:35;96717.50;;;21.04;33.50
84590;BME280;75075;48.816;8.740;2024-01-30T00:40:35;96717.69;;;21.03;33.46
84590;BME280;75075;48.816;8.740;2024-01-30T00:45:35;96720.38;;;21.03;33.72
84590;BME280;75075;48.816;8.740;2024-01-30T00:50:36;96713.28;;;21.02;33.64
84590;BME280;75075;48.816;8.740;2024-01-30T00:55:36;96709.91;;;21.00;33.71
84590;BME280;75075;48.816;8.740;2024-01-30T01:00:36;96712.75;;;20.98;33.71
84590;BME280;75075;48.816;8.740;2024-01-30T01:05:37;96708.38;;;20.97;33.53
84590;BME280;75075;48.816;8.740;2024-01-30T01:10:37;96714.91;;;20.95;33.52
84590;BME280;75075;48.816;8.740;2024-01-30T01:15:37;96715.75;;;20.95;33.70
84590;BME280;75075;48.816;8.740;2024-01-30T01:20:37;96712.41;;;20.93;33.74
84590;BME280;75075;48.816;8.740;2024-01-30T01:25:38;96708.84;;;20.93;33.70
84590;BME280;75075;48.816;8.740;2024-01-30T01:30:38;96711.00;;;20.89;33.95
84590;BME280;75075;48.816;8.740;2024-01-30T01:35:39;96705.63;;;20.89;33.51
84590;BME280;75075;48.816;8.740;2024-01-30T01:40:40;96698.72;;;20.87;33.61
84590;BME280;75075;48.816;8.740;2024-01-30T01:45:41;96705.94;;;20.86;33.74
84590;BME280;75075;48.816;8.740;2024-01-30T01:50:42;96703.25;;;20.86;33.76
84590;BME280;75075;48.816;8.740;2024-01-30T01:55:43;96703.44;;;20.85;33.83
84590;BME280;75075;48.816;8.740;2024-01-30T02:00:43;96697.50;;;20.81;33.71
84590;BME280;75075;48.816;8.740;2024-01-30T02:05:45;96703.75;;;20.82;33.46
84590;BME280;75075;48.816;8.740;2024-01-30T02:10:45;96705.75;;;20.80;33.45
84590;BME280;75075;48.816;8.740;2024-01-30T02:15:49;96703.22;;;20.78;33.52
84590;BME280;75075;48.816;8.740;2024-01-30T02:20:53;96700.69;;;20.77;33.46
84590;BME280;75075;48.816;8.740;2024-01-30T02:25:54;96712.31;;;20.77;33.67
84590;BME280;75075;48.816;8.740;2024-01-30T02:30:54;96712.47;;;20.76;33.99
84590;BME280;75075;48.816;8.740;2024-01-30T02:35:54;96711.94;;;20.72;33.69
84590;BME280;75075;48.816;8.740;2024-01-30T02:40:55;96720.00;;;20.72;33.85
84590;BME280;75075;48.816;8.740;2024-01-30T02:45:56;96711.25;;;20.70;33.67
84590;BME280;75075;48.816;8.740;2024-01-30T02:50:58;96711.44;;;20.69;33.74
84590;BME280;75075;48.816;8.740;2024-01-30T02:55:58;96708.72;;;20.69;33.45
84590;BME280;75075;48.816;8.740;2024-01-30T03:00:59;96710.56;;;20.68;33.64
84590;BME280;75075;48.816;8.740;2024-01-30T03:05:59;96709.06;;;20.66;33.73
84590;BME280;75075;48.816;8.740;2024-01-30T03:10:59;96703.81;;;20.64;33.61
84590;BME280;75075;48.816;8.740;2024-01-30T03:15:59;96693.03;;;20.64;33.60
84590;BME280;75075;48.816;8.740;2024-01-30T03:21:00;96696.75;;;20.63;33.55
84590;BME280;75075;48.816;8.740;2024-01-30T03:26:01;96696.03;;;20.61;33.31
84590;BME280;75075;48.816;8.740;2024-01-30T03:31:01;96690.81;;;20.60;33.77
84590;BME280;75075;48.816;8.740;2024-01-30T03:36:05;96698.06;;;20.59;33.35
84590;BME280;75075;48.816;8.740;2024-01-30T03:41:07;96694.50;;;20.59;34.02
84590;BME280;75075;48.816;8.740;2024-01-30T03:46:08;96692.81;;;20.58;33.75
84590;BME280;75075;48.816;8.740;2024-01-30T03:51:08;96695.00;;;20.54;33.92
84590;BME280;75075;48.816;8.740;2024-01-30T03:56:14;96690.47;;;20.55;33.86
84590;BME280;75075;48.816;8.740;2024-01-30T04:01:14;96699.69;;;20.52;33.46
84590;BME280;75075;48.816;8.740;2024-01-30T04:06:15;96707.75;;;20.52;33.42
84590;BME280;75075;48.816;8.740;2024-01-30T04:11:18;96700.84;;;20.50;33.43
84590;BME280;75075;48.816;8.740;2024-01-30T04:16:20;96698.31;;;20.48;33.44
84590;BME280;75075;48.816;8.740;2024-01-30T04:21:21;96701.88;;;20.49;33.45
84590;BME280;75075;48.816;8.740;2024-01-30T04:26:22;96698.47;;;20.46;33.89
84590;BME280;75075;48.816;8.740;2024-01-30T04:31:22;96698.31;;;20.48;33.71
84590;BME280;75075;48.816;8.740;2024-01-30T04:36:22;96695.78;;;20.46;33.55
84590;BME280;75075;48.816;8.740;2024-01-30T04:41:23;96704.16;;;20.43;33.84
84590;BME280;75075;48.816;8.740;2024-01-30T04:46:23;96698.78;;;20.43;33.71
84590;BME280;75075;48.816;8.740;2024-01-30T04:51:24;96699.81;;;20.42;33.55
84590;BME280;75075;48.816;8.740;2024-01-30T04:56:24;96692.88;;;20.40;33.63
84590;BME280;75075;48.816;8.740;2024-01-30T05:01:24;96705.50;;;20.39;33.37
84590;BME280;75075;48.816;8.740;2024-01-30T05:06:25;96701.09;;;20.38;33.37
84590;BME280;75075;48.816;8.740;2024-01-30T05:11:26;96694.06;;;20.37;33.38
84590;BME280;75075;48.816;8.740;2024-01-30T05:16:26;96694.19;;;20.36;33.92
84590;BME280;75075;48.816;8.740;2024-01-30T05:21:26;96698.91;;;20.34;33.77
84590;BME280;75075;48.816;8.740;2024-01-30T05:26:26;96691.81;;;20.33;33.49
84590;BME280;75075;48.816;8.740;2024-01-30T05:31:27;96692.00;;;20.31;33.50
84590;BME280;75075;48.816;8.740;2024-01-30T05:36:27;96700.88;;;20.32;33.46
84590;BME280;75075;48.816;8.740;2024-01-30T05:41:27;96708.28;;;20.30;33.54
84590;BME280;75075;48.816;8.740;2024-01-30T05:46:28;96708.28;;;20.30;33.53
84590;BME280;75075;48.816;8.740;2024-01-30T05:51:28;96715.69;;;20.28;33.29
84590;BME280;75075;48.816;8.740;2024-01-30T05:56:28;96720.06;;;20.29;33.84
84590;BME280;75075;48.816;8.740;2024-01-30T06:01:29;96727.31;;;20.28;33.72
84590;BME280;75075;48.816;8.740;2024-01-30T06:06:30;96724.91;;;20.25;33.36
84590;BME280;75075;48.816;8.740;2024-01-30T06:11:30;96722.34;;;20.24;33.35
84590;BME280;75075;48.816;8.740;2024-01-30T06:16:30;96722.34;;;20.24;33.75
84590;BME280;75075;48.816;8.740;2024-01-30T06:21:30;96721.47;;;20.23;33.80
84590;BME280;75075;48.816;8.740;2024-01-30T06:26:31;96717.13;;;20.22;33.37
84590;BME280;75075;48.816;8.740;2024-01-30T06:31:32;96722.50;;;20.22;33.35
84590;BME280;75075;48.816;8.740;2024-01-30T06:36:32;96718.41;;;20.18;33.44
84590;BME280;75075;48.816;8.740;2024-01-30T06:41:32;96724.47;;;20.20;33.52
84590;BME280;75075;48.816;8.740;2024-01-30T06:46:32;96727.34;;;20.19;33.25
84590;BME280;75075;48.816;8.740;2024-01-30T06:51:33;96729.34;;;20.17;33.69
84590;BME280;75075;48.816;8.740;2024-01-30T06:56:33;96723.97;;;20.17;33.59
84590;BME280;75075;48.816;8.740;2024-01-30T07:01:33;96719.94;;;20.21;34.89
84590;BME280;75075;48.816;8.740;2024-01-30T07:06:33;96723.97;;;20.17;37.04
84590;BME280;75075;48.816;8.740;2024-01-30T07:11:34;96726.50;;;20.18;36.89
84590;BME280;75075;48.816;8.740;2024-01-30T07:16:34;96722.28;;;20.16;36.96
84590;BME280;75075;48.816;8.740;2024-01-30T07:21:34;96734.84;;;20.25;36.04
84590;BME280;75075;48.816;8.740;2024-01-30T07:26:34;96732.25;;;20.23;36.63
84590;BME280;75075;48.816;8.740;2024-01-30T07:31:35;96729.56;;;20.23;36.54
84590;BME280;75075;48.816;8.740;2024-01-30T07:36:36;96738.66;;;20.22;36.52
84590;BME280;75075;48.816;8.740;2024-01-30T07:41:36;96740.50;;;20.22;36.48
84590;BME280;75075;48.816;8.740;2024-01-30T07:46:36;96740.31;;;20.23;36.69
84590;BME280;75075;48.816;8.740;2024-01-30T07:51:37;96734.22;;;20.31;35.81
84590;BME280;75075;48.816;8.740;2024-01-30T07:56:37;96739.91;;;20.28;36.23
84590;BME280;75075;48.816;8.740;2024-01-30T08:01:38;96746.50;;;20.33;35.78
84590;BME280;75075;48.816;8.740;2024-01-30T08:06:38;96730.59;;;20.40;35.35
84590;BME280;75075;48.816;8.740;2024-01-30T08:11:38;96736.78;;;20.40;34.81
84590;BME280;75075;48.816;8.740;2024-01-30T08:16:38;96743.44;;;20.46;34.87
84590;BME280;75075;48.816;8.740;2024-01-30T08:21:39;96746.47;;;20.51;34.83
84590;BME280;75075;48.816;8.740;2024-01-30T08:26:39;96741.47;;;20.56;35.15
84590;BME280;75075;48.816;8.740;2024-01-30T08:31:39;96754.63;;;20.59;34.96
84590;BME280;75075;48.816;8.740;2024-01-30T08:36:40;96749.47;;;20.66;34.88
84590;BME280;75075;48.816;8.740;2024-01-30T08:41:40;96750.66;;;20.71;34.94
84590;BME280;75075;48.816;8.740;2024-01-30T08:46:40;96750.41;;;20.82;35.19
84590;BME280;75075;48.816;8.740;2024-01-30T08:51:40;96751.53;;;21.06;34.69
84590;BME280;75075;48.816;8.740;2024-01-30T08:56:41;96746.00;;;20.81;33.89
84590;BME280;75075;48.816;8.740;2024-01-30T09:01:41;96757.31;;;20.85;34.85
84590;BME280;75075;48.816;8.740;2024-01-30T09:06:41;96761.75;;;20.68;35.82
84590;BME280;75075;48.816;8.740;2024-01-30T09:11:42;96758.69;;;20.63;35.98
84590;BME280;75075;48.816;8.740;2024-01-30T09:16:43;96763.69;;;20.84;35.35
84590;BME280;75075;48.816;8.740;2024-01-30T09:21:43;96771.00;;;20.91;35.30
84590;BME280;75075;48.816;8.740;2024-01-30T09:26:43;96763.44;;;20.95;35.28
84590;BME280;75075;48.816;8.740;2024-01-30T09:31:45;96758.44;;;21.00;35.22
84590;BME280;75075;48.816;8.740;2024-01-30T09:36:45;96766.03;;;21.04;35.40
84590;BME280;75075;48.816;8.740;2024-01-30T09:41:49;96768.78;;;21.13;34.97
84590;BME280;75075;48.816;8.740;2024-01-30T09:46:53;96779.97;;;21.18;35.43
84590;BME280;75075;48.816;8.740;2024-01-30T09:51:53;96783.84;;;21.23;35.16
84590;BME280;75075;48.816;8.740;2024-01-30T09:56:54;96778.47;;;21.23;35.02
84590;BME280;75075;48.816;8.740;2024-01-30T10:01:54;96782.38;;;21.29;35.33
84590;BME280;75075;48.816;8.740;2024-01-30T10:06:54;96778.31;;;21.33;35.58
84590;BME280;75075;48.816;8.740;2024-01-30T10:11:55;96784.09;;;21.38;35.22
84590;BME280;75075;48.816;8.740;2024-01-30T10:16:55;96777.88;;;21.45;35.42
84590;BME280;75075;48.816;8.740;2024-01-30T10:21:56;96778.91;;;21.52;35.40
84590;BME280;75075;48.816;8.740;2024-01-30T10:26:56;96776.09;;;21.62;35.21
84590;BME280;75075;48.816;8.740;2024-01-30T10:32:04;96778.47;;;21.65;35.23
84590;BME280;75075;48.816;8.740;2024-01-30T10:42:17;96773.81;;;21.41;36.61
84590;BME280;75075;48.816;8.740;2024-01-30T10:47:21;96772.44;;;21.29;36.45
84590;BME280;75075;48.816;8.740;2024-01-30T10:52:25;96774.78;;;21.32;35.85
84590;BME280;75075;48.816;8.740;2024-01-30T10:57:27;96766.88;;;21.31;35.78
84590;BME280;75075;48.816;8.740;2024-01-30T11:02:27;96772.78;;;21.34;35.88
84590;BME280;75075;48.816;8.740;2024-01-30T11:07:29;96769.59;;;21.39;36.08
84590;BME280;75075;48.816;8.740;2024-01-30T11:12:31;96763.72;;;21.43;36.03
84590;BME280;75075;48.816;8.740;2024-01-30T11:17:50;96760.00;;;21.44;35.82
84590;BME280;75075;48.816;8.740;2024-01-30T11:22:52;96769.13;;;21.43;35.75
84590;BME280;75075;48.816;8.740;2024-01-30T11:27:54;96766.59;;;21.50;35.30
84590;BME280;75075;48.816;8.740;2024-01-30T11:33:05;96761.44;;;21.73;35.30
84590;BME280;75075;48.816;8.740;2024-01-30T11:38:07;96753.38;;;21.81;35.08
84590;BME280;75075;48.816;8.740;2024-01-30T11:43:08;96756.28;;;21.87;35.23
84590;BME280;75075;48.816;8.740;2024-01-30T11:48:11;96753.63;;;22.03;35.32
84590;BME280;75075;48.816;8.740;2024-01-30T11:53:12;96752.25;;;22.07;35.00
84590;BME280;75075;48.816;8.740;2024-01-30T11:58:12;96747.72;;;22.16;35.36
84590;BME280;75075;48.816;8.740;2024-01-30T12:03:12;96746.72;;;22.33;34.73
84590;BME280;75075;48.816;8.740;2024-01-30T12:08:16;96731.34;;;22.34;34.92
84590;BME280;75075;48.816;8.740;2024-01-30T12:13:16;96730.84;;;22.30;35.43
84590;BME280;75075;48.816;8.740;2024-01-30T12:18:20;96725.97;;;22.18;36.69
84590;BME280;75075;48.816;8.740;2024-01-30T12:23:20;96730.00;;;22.22;36.27
84590;BME280;75075;48.816;8.740;2024-01-30T12:28:25;96723.25;;;22.42;35.90
84590;BME280;75075;48.816;8.740;2024-01-30T12:33:30;96726.44;;;22.61;35.22
84590;BME280;75075;48.816;8.740;2024-01-30T12:38:30;96723.75;;;22.78;35.42
84590;BME280;75075;48.816;8.740;2024-01-30T12:43:31;96721.88;;;22.86;35.04
84590;BME280;75075;48.816;8.740;2024-01-30T12:48:31;96725.91;;;22.90;35.36
84590;BME280;75075;48.816;8.740;2024-01-30T12:53:32;96724.22;;;22.97;35.17
84590;BME280;75075;48.816;8.740;2024-01-30T12:58:32;96721.13;;;23.08;35.20
84590;BME280;75075;48.816;8.740;2024-01-30T13:03:33;96724.66;;;23.17;34.88
84590;BME280;75075;48.816;8.740;2024-01-30T13:08:33;96716.84;;;23.22;34.98
84590;BME280;75075;48.816;8.740;2024-01-30T13:13:33;96706.22;;;23.20;35.30
84590;BME280;75075;48.816;8.740;2024-01-30T13:18:34;96705.53;;;23.26;34.88
84590;BME280;75075;48.816;8.740;2024-01-30T13:23:34;96706.53;;;23.25;34.98
84590;BME280;75075;48.816;8.740;2024-01-30T13:28:34;96719.69;;;23.28;35.22
84590;BME280;75075;48.816;8.740;2024-01-30T13:33:35;96710.63;;;23.21;35.28
84590;BME280;75075;48.816;8.740;2024-01-30T13:38:35;96719.09;;;23.10;34.83
84590;BME280;75075;48.816;8.740;2024-01-30T13:43:35;96709.53;;;23.31;34.86
84590;BME280;75075;48.816;8.740;2024-01-30T13:48:35;96709.88;;;23.36;35.09
84590;BME280;75075;48.816;8.740;2024-01-30T13:53:36;96724.22;;;23.36;35.13
84590;BME280;75075;48.816;8.740;2024-01-30T13:58:36;96726.94;;;23.36;35.27
84590;BME280;75075;48.816;8.740;2024-01-30T14:03:36;96729.47;;;23.38;35.20
84590;BME280;75075;48.816;8.740;2024-01-30T14:08:37;96735.59;;;23.40;35.22
84590;BME280;75075;48.816;8.740;2024-01-30T14:13:37;96740.63;;;23.43;35.41
84590;BME280;75075;48.816;8.740;2024-01-30T14:18:37;96746.56;;;23.46;35.32
84590;BME280;75075;48.816;8.740;2024-01-30T14:23:37;96742.84;;;23.47;35.74
84590;BME280;75075;48.816;8.740;2024-01-30T14:28:38;96753.66;;;23.47;35.34
84590;BME280;75075;48.816;8.740;2024-01-30T14:33:38;96751.78;;;23.48;35.72
84590;BME280;75075;48.816;8.740;2024-01-30T14:38:38;96753.13;;;23.52;35.89
84590;BME280;75075;48.816;8.740;2024-01-30T14:43:38;96756.13;;;23.57;36.03
84590;BME280;75075;48.816;8.740;2024-01-30T14:48:39;96758.00;;;23.56;36.05
84590;BME280;75075;48.816;8.740;2024-01-30T14:53:39;96758.34;;;23.61;36.56
84590;BME280;75075;48.816;8.740;2024-01-30T14:58:39;96760.00;;;23.62;36.31
84590;BME280;75075;48.816;8.740;2024-01-30T15:03:40;96763.75;;;23.61;36.30
84590;BME280;75075;48.816;8.740;2024-01-30T15:08:40;96753.06;;;23.60;36.40
84590;BME280;75075;48.816;8.740;2024-01-30T15:13:40;96759.53;;;23.59;36.25
84590;BME280;75075;48.816;8.740;2024-01-30T15:18:41;96758.34;;;23.61;36.35
84590;BME280;75075;48.816;8.740;2024-01-30T15:23:41;96761.19;;;23.60;36.40
84590;BME280;75075;48.816;8.740;2024-01-30T15:28:42;96762.72;;;23.62;36.42
84590;BME280;75075;48.816;8.740;2024-01-30T15:33:43;96773.38;;;23.64;36.24
84590;BME280;75075;48.816;8.740;2024-01-30T15:38:43;96776.56;;;23.67;36.61
84590;BME280;75075;48.816;8.740;2024-01-30T15:43:43;96788.72;;;23.71;36.17
84590;BME280;75075;48.816;8.740;2024-01-30T15:48:44;96786.50;;;23.75;36.25
84590;BME280;75075;48.816;8.740;2024-01-30T15:53:44;96793.63;;;23.76;36.00
84590;BME280;75075;48.816;8.740;2024-01-30T15:58:44;96791.56;;;23.78;36.33
84590;BME280;75075;48.816;8.740;2024-01-30T16:03:49;96789.72;;;23.78;36.07
84590;BME280;75075;48.816;8.740;2024-01-30T16:08:49;96793.44;;;23.77;35.98
84590;BME280;75075;48.816;8.740;2024-01-30T16:13:50;96792.59;;;23.77;35.98
84590;BME280;75075;48.816;8.740;2024-01-30T16:18:52;96800.72;;;23.77;36.41
84590;BME280;75075;48.816;8.740;2024-01-30T16:23:52;96798.00;;;23.77;36.47
84590;BME280;75075;48.816;8.740;2024-01-30T16:28:53;96808.47;;;23.80;36.45
84590;BME280;75075;48.816;8.740;2024-01-30T16:33:54;96811.03;;;23.81;36.39
84590;BME280;75075;48.816;8.740;2024-01-30T16:38:54;96827.09;;;23.83;36.56
84590;BME280;75075;48.816;8.740;2024-01-30T16:43:54;96824.56;;;23.81;36.42
84590;BME280;75075;48.816;8.740;2024-01-30T16:48:55;96834.34;;;23.19;34.48
84590;BME280;75075;48.816;8.740;2024-01-30T16:53:55;96825.94;;;22.90;34.74
84590;BME280;75075;48.816;8.740;2024-01-30T16:58:55;96832.88;;;22.93;34.95
84590;BME280;75075;48.816;8.740;2024-01-30T17:03:55;96838.44;;;22.99;34.88
84590;BME280;75075;48.816;8.740;2024-01-30T17:08:56;96836.09;;;22.88;34.95
84590;BME280;75075;48.816;8.740;2024-01-30T17:13:56;96845.72;;;22.91;34.88
84590;BME280;75075;48.816;8.740;2024-01-30T17:18:56;96848.59;;;22.97;34.85
84590;BME280;75075;48.816;8.740;2024-01-30T17:23:57;96852.28;;;22.96;34.80
84590;BME280;75075;48.816;8.740;2024-01-30T17:33:57;96856.38;;;22.84;34.85
84590;BME280;75075;48.816;8.740;2024-01-30T17:38:57;96864.66;;;22.83;34.96
84590;BME280;75075;48.816;8.740;2024-01-30T17:44:00;96872.25;;;22.79;35.37
84590;BME280;75075;48.816;8.740;2024-01-30T17:49:00;96879.69;;;22.77;35.55
84590;BME280;75075;48.816;8.740;2024-01-30T17:54:00;96873.25;;;22.86;35.33
84590;BME280;75075;48.816;8.740;2024-01-30T17:59:00;96871.91;;;22.90;35.63
84590;BME280;75075;48.816;8.740;2024-01-30T18:04:01;96878.66;;;22.86;35.40
84590;BME280;75075;48.816;8.740;2024-01-30T18:09:01;96881.56;;;22.93;35.29
84590;BME280;75075;48.816;8.740;2024-01-30T18:14:02;96899.03;;;22.56;35.74
84590;BME280;75075;48.816;8.740;2024-01-30T18:19:02;96892.53;;;22.67;35.83
84590;BME280;75075;48.816;8.740;2024-01-30T18:24:03;96899.09;;;22.64;35.81
84590;BME280;75075;48.816;8.740;2024-01-30T18:29:04;96897.53;;;22.62;35.46
84590;BME280;75075;48.816;8.740;2024-01-30T18:34:05;96897.22;;;22.65;35.92
84590;BME280;75075;48.816;8.740;2024-01-30T18:39:05;96899.09;;;22.64;35.83
84590;BME280;75075;48.816;8.740;2024-01-30T18:44:06;96900.97;;;22.64;35.85
84590;BME280;75075;48.816;8.740;2024-01-30T18:49:06;96905.81;;;22.60;35.81
84590;BME280;75075;48.816;8.740;2024-01-30T18:54:06;96893.50;;;22.58;36.17
84590;BME280;75075;48.816;8.740;2024-01-30T18:59:07;96898.56;;;22.61;36.24
84590;BME280;75075;48.816;8.740;2024-01-30T19:04:07;96902.63;;;21.73;36.41
84590;BME280;75075;48.816;8.740;2024-01-30T19:09:07;96893.09;;;22.29;36.06
84590;BME280;75075;48.816;8.740;2024-01-30T19:14:08;96886.56;;;22.55;35.63
84590;BME280;75075;48.816;8.740;2024-01-30T19:19:08;96890.16;;;22.64;35.65
84590;BME280;75075;48.816;8.740;2024-01-30T19:24:09;96886.28;;;22.66;35.42
84590;BME280;75075;48.816;8.740;2024-01-30T19:29:09;96886.09;;;22.68;35.44
84590;BME280;75075;48.816;8.740;2024-01-30T19:34:10;96889.47;;;22.70;35.43
84590;BME280;75075;48.816;8.740;2024-01-30T19:39:10;96900.97;;;22.72;35.12
84590;BME280;75075;48.816;8.740;2024-01-30T19:44:13;96893.84;;;22.71;35.34
84590;BME280;75075;48.816;8.740;2024-01-30T19:49:13;96905.53;;;22.72;35.42
84590;BME280;75075;48.816;8.740;2024-01-30T19:54:14;96902.81;;;22.72;35.40
84590;BME280;75075;48.816;8.740;2024-01-30T19:59:17;96907.22;;;22.73;35.24
84590;BME280;75075;48.816;8.740;2024-01-30T20:04:17;96909.06;;;22.72;35.47
84590;BME280;75075;48.816;8.740;2024-01-30T20:09:17;96915.34;;;22.73;35.23
84590;BME280;75075;48.816;8.740;2024-01-30T20:14:18;96915.34;;;22.73;34.96
84590;BME280;75075;48.816;8.740;2024-01-30T20:19:18;96917.34;;;22.70;35.48
84590;BME280;75075;48.816;8.740;2024-01-30T20:24:18;96924.59;;;22.70;35.25
84590;BME280;75075;48.816;8.740;2024-01-30T20:29:19;96932.56;;;22.72;35.45
84590;BME280;75075;48.816;8.740;2024-01-30T20:34:19;96928.16;;;22.70;35.49
84590;BME280;75075;48.816;8.740;2024-01-30T20:39:19;96932.69;;;22.70;35.36
84590;BME280;75075;48.816;8.740;2024-01-30T20:44:19;96934.59;;;22.69;35.13
84590;BME280;75075;48.816;8.740;2024-01-30T20:49:20;96941.84;;;22.69;35.55
84590;BME280;75075;48.816;8.740;2024-01-30T20:54:20;96946.41;;;22.68;35.15
84590;BME280;75075;48.816;8.740;2024-01-30T20:59:21;96945.53;;;22.68;35.55
84590;BME280;75075;48.816;8.740;2024-01-30T21:04:21;96952.81;;;22.67;35.21
84590;BME280;75075;48.816;8.740;2024-01-30T21:09:21;96951.97;;;22.67;35.13
84590;BME280;75075;48.816;8.740;2024-01-30T21:14:22;96951.97;;;22.67;35.28
84590;BME280;75075;48.816;8.740;2024-01-30T21:19:22;96956.69;;;22.65;35.37
84590;BME280;75075;48.816;8.740;2024-01-30T21:24:22;96955.69;;;22.66;35.53
84590;BME280;75075;48.816;8.740;2024-01-30T21:29:22;96964.78;;;22.65;35.33
84590;BME280;75075;48.816;8.740;2024-01-30T21:34:23;96961.25;;;22.64;35.29
84590;BME280;75075;48.816;8.740;2024-01-30T21:39:23;96961.38;;;22.63;35.58
84590;BME280;75075;48.816;8.740;2024-01-30T21:44:23;96957.84;;;22.62;35.33
84590;BME280;75075;48.816;8.740;2024-01-30T21:49:24;96951.56;;;22.62;35.51
84590;BME280;75075;48.816;8.740;2024-01-30T21:54:24;96962.38;;;22.62;35.17
84590;BME280;75075;48.816;8.740;2024-01-30T21:59:25;96955.47;;;22.59;35.32
84590;BME280;75075;48.816;8.740;2024-01-30T22:04:26;96955.31;;;22.61;35.50
84590;BME280;75075;48.816;8.740;2024-01-30T22:09:26;96948.38;;;22.58;35.09
84590;BME280;75075;48.816;8.740;2024-01-30T22:14:26;96948.38;;;22.58;34.99
84590;BME280;75075;48.816;8.740;2024-01-30T22:19:27;96961.03;;;22.58;35.49
84590;BME280;75075;48.816;8.740;2024-01-30T22:24:27;96967.44;;;22.57;35.24
84590;BME280;75075;48.816;8.740;2024-01-30T22:29:27;96968.44;;;22.56;35.31
84590;BME280;75075;48.816;8.740;2024-01-30T22:34:27;96983.00;;;22.55;35.21
84590;BME280;75075;48.816;8.740;2024-01-30T22:39:28;96987.38;;;22.56;35.40
84590;BME280;75075;48.816;8.740;2024-01-30T22:44:28;96987.69;;;22.53;35.30
84590;BME280;75075;48.816;8.740;2024-01-30T22:49:28;96996.66;;;22.53;35.32
84590;BME280;75075;48.816;8.740;2024-01-30T22:54:29;96995.78;;;22.53;35.49
84590;BME280;75075;48.816;8.740;2024-01-30T22:59:29;96992.28;;;22.52;35.30
84590;BME280;75075;48.816;8.740;2024-01-30T23:04:29;96985.00;;;22.53;35.46
84590;BME280;75075;48.816;8.740;2024-01-30T23:09:29;96997.81;;;22.51;35.52
84590;BME280;75075;48.816;8.740;2024-01-30T23:14:30;96992.59;;;22.49;35.27
84590;BME280;75075;48.816;8.740;2024-01-30T23:19:31;96993.59;;;22.48;35.47
84590;BME280;75075;48.816;8.740;2024-01-30T23:24:31;96999.84;;;22.49;35.01
84590;BME280;75075;48.816;8.740;2024-01-30T23:29:31;97008.97;;;22.48;35.54
84590;BME280;75075;48.816;8.740;2024-01-30T23:34:32;97001.03;;;22.46;35.26
84590;BME280;75075;48.816;8.740;2024-01-30T23:39:32;97005.41;;;22.47;35.06
84590;BME280;75075;48.816;8.740;2024-01-30T23:44:33;97004.41;;;22.48;35.27
84590;BME280;75075;48.816;8.740;2024-01-30T23:49:33;96996.63;;;22.45;35.38
84590;BME280;75075;48.816;8.740;2024-01-30T23:54:33;96998.47;;;22.45;35.06
84590;BME280;75075;48.816;8.740;2024-01-30T23:59:33;97001.34;;;22.43;35.20
